Time;durP1;ratioP1;P1;durP2;ratioP2;P2;SDS_P1;SDS_P2;PMS_P1;PMS_P2;Temp;Humidity;BMP_temperature;BMP_pressure;BME280_temperature;BME280_humidity;BME280_pressure;Samples;Min_cycle;Max_cycle;Signal;HPM_P1;HPM_P2
2023/04/17 00:01:07;;;;;;;15.00;11.50;;;;;;;8.64;88.48;101668.05;109178;1253;59095;-70
2023/04/17 00:03:34;;;;;;;15.40;11.20;;;;;;;8.59;88.36;101667.44;109336;1253;59139;-70
2023/04/17 00:06:02;;;;;;;14.90;10.70;;;;;;;8.53;88.55;101666.18;109074;1254;72750;-71
2023/04/17 00:08:28;;;;;;;13.70;10.70;;;;;;;8.46;88.98;101669.06;109287;1253;71221;-70
2023/04/17 00:10:55;;;;;;;13.90;11.70;;;;;;;8.40;89.05;101666.42;109130;1252;71368;-71
2023/04/17 00:13:34;;;;;;;15.00;11.50;;;;;;;8.38;89.12;101667.49;109303;1253;61265;-70
2023/04/17 00:16:01;;;;;;;14.20;11.50;;;;;;;8.36;89.00;101668.18;109334;1253;58863;-71
2023/04/17 00:18:28;;;;;;;14.60;12.00;;;;;;;8.34;89.09;101672.60;109222;1253;72642;-71
2023/04/17 00:20:55;;;;;;;16.10;12.10;;;;;;;8.33;89.24;101670.04;109035;1253;70685;-71
2023/04/17 00:23:22;;;;;;;16.50;12.20;;;;;;;8.32;89.06;101670.84;109237;1253;72540;-70
2023/04/17 00:25:49;;;;;;;15.60;12.30;;;;;;;8.30;88.99;101668.42;109013;1253;60723;-71
2023/04/17 00:28:16;;;;;;;17.10;12.60;;;;;;;8.30;89.16;101668.70;109310;1253;58825;-70
2023/04/17 00:30:42;;;;;;;16.40;11.80;;;;;;;8.27;89.02;101669.31;109192;1254;73668;-71
2023/04/17 00:33:09;;;;;;;16.60;12.40;;;;;;;8.23;89.18;101667.94;109257;1253;70557;-70
2023/04/17 00:35:36;;;;;;;15.30;12.60;;;;;;;8.19;89.34;101667.95;109020;1253;72861;-70
2023/04/17 00:38:03;;;;;;;14.90;12.40;;;;;;;8.16;89.01;101668.55;109055;1252;59122;-70
2023/04/17 00:40:30;;;;;;;17.00;12.90;;;;;;;8.14;89.43;101666.95;109088;1253;59628;-71
2023/04/17 00:43:01;;;;;;;15.90;12.60;;;;;;;8.12;89.53;101666.27;109186;1254;72380;-70
2023/04/17 00:45:29;;;;;;;18.10;13.30;;;;;;;8.10;89.17;101668.84;109189;1253;70015;-70
2023/04/17 00:47:58;;;;;;;17.60;12.80;;;;;;;8.08;89.31;101668.30;109404;1253;71608;-70
2023/04/17 00:50:27;;;;;;;17.50;12.30;;;;;;;8.05;89.51;101668.58;109256;1253;60055;-70
2023/04/17 00:52:54;;;;;;;16.50;12.80;;;;;;;8.02;89.64;101672.27;109157;1254;58837;-70
2023/04/17 00:55:21;;;;;;;15.70;12.90;;;;;;;7.98;89.77;101675.23;109404;1253;72532;-70
2023/04/17 00:57:48;;;;;;;16.00;13.00;;;;;;;7.96;89.76;101675.59;109430;1253;70853;-70
2023/04/17 01:00:16;;;;;;;16.60;12.50;;;;;;;7.94;89.92;101676.63;109412;1253;71727;-70
2023/04/17 01:02:44;;;;;;;17.60;13.40;;;;;;;7.90;89.82;101675.90;109373;1253;59634;-70
2023/04/17 01:05:11;;;;;;;16.10;12.30;;;;;;;7.87;89.95;101675.61;109259;1253;60415;-70
2023/04/17 01:07:39;;;;;;;17.80;13.00;;;;;;;7.84;90.06;101673.81;109466;1253;73919;-70
2023/04/17 01:10:07;;;;;;;15.40;12.50;;;;;;;7.79;90.42;101674.43;109367;1253;69655;-70
2023/04/17 01:12:33;;;;;;;17.40;12.80;;;;;;;7.72;90.63;101674.09;109205;1253;71687;-70
2023/04/17 01:15:00;;;;;;;16.70;13.60;;;;;;;7.70;90.44;101674.44;109259;1253;59679;-70
2023/04/17 01:17:27;;;;;;;16.90;13.40;;;;;;;7.70;90.58;101675.93;109430;1252;58132;-70
2023/04/17 01:19:54;;;;;;;17.40;13.40;;;;;;;7.68;90.50;101676.06;109365;1253;72598;-70
2023/04/17 01:22:21;;;;;;;17.40;13.70;;;;;;;7.67;90.67;101681.09;109417;1253;69913;-70
2023/04/17 01:24:48;;;;;;;16.20;12.30;;;;;;;7.67;90.76;101677.21;109338;1252;72375;-70
2023/04/17 01:27:14;;;;;;;16.90;12.30;;;;;;;7.64;90.91;101676.42;109382;1253;58666;-70
2023/04/17 01:29:42;;;;;;;17.30;13.00;;;;;;;7.63;90.78;101680.36;109334;1253;62636;-71
2023/04/17 01:32:09;;;;;;;18.70;13.00;;;;;;;7.62;90.97;101680.05;109377;1252;73502;-70
2023/04/17 01:34:36;;;;;;;17.60;12.30;;;;;;;7.62;90.88;101682.05;109417;1253;69717;-70
2023/04/17 01:37:03;;;;;;;19.90;12.60;;;;;;;7.61;90.86;101681.08;109199;1253;71462;-70
2023/04/17 01:39:30;;;;;;;17.20;12.70;;;;;;;7.56;91.32;101678.98;109128;1253;58986;-70
2023/04/17 01:41:57;;;;;;;16.00;12.20;;;;;;;7.53;91.17;101685.92;109404;1253;61719;-70
2023/04/17 01:44:24;;;;;;;17.40;13.10;;;;;;;7.51;91.10;101684.52;109446;1253;72622;-70
2023/04/17 01:46:51;;;;;;;17.80;13.10;;;;;;;7.52;91.30;101679.90;109377;1253;69151;-70
2023/04/17 01:49:19;;;;;;;15.20;12.20;;;;;;;7.54;91.26;101682.73;109219;1253;71137;-70
2023/04/17 01:51:46;;;;;;;16.90;13.00;;;;;;;7.52;91.32;101682.90;109264;1254;59686;-70
2023/04/17 01:54:14;;;;;;;17.70;12.70;;;;;;;7.51;91.16;101683.98;109389;1252;58774;-70
2023/04/17 01:56:41;;;;;;;16.70;12.70;;;;;;;7.50;91.18;101687.96;109137;1253;71567;-70
2023/04/17 01:59:08;;;;;;;17.40;13.80;;;;;;;7.49;91.16;101686.65;109304;1253;70165;-70
2023/04/17 02:01:36;;;;;;;18.00;13.20;;;;;;;7.48;91.33;101691.34;109364;1253;72705;-70
2023/04/17 02:04:03;;;;;;;19.50;13.10;;;;;;;7.47;91.60;101688.61;109291;1253;60389;-70
2023/04/17 02:06:30;;;;;;;19.40;13.40;;;;;;;7.43;91.22;101694.92;109425;1252;59363;-70
2023/04/17 02:08:58;;;;;;;17.30;13.20;;;;;;;7.40;91.56;101693.65;109343;1253;74857;-70
2023/04/17 02:11:25;;;;;;;17.90;13.30;;;;;;;7.38;91.77;101693.05;109110;1253;70932;-70
2023/04/17 02:13:52;;;;;;;16.70;12.90;;;;;;;7.36;91.66;101695.14;109332;1252;70081;-70
2023/04/17 02:16:22;;;;;;;17.10;12.70;;;;;;;7.31;91.81;101693.24;109314;1253;59998;-70
2023/04/17 02:18:50;;;;;;;16.00;12.20;;;;;;;7.28;91.60;101696.70;109276;1253;59169;-70
2023/04/17 02:21:17;;;;;;;18.50;13.00;;;;;;;7.23;92.27;101695.89;109280;1253;72631;-70
2023/04/17 02:23:44;;;;;;;15.90;12.60;;;;;;;7.21;92.15;101694.45;109445;1253;69244;-70
2023/04/17 02:26:11;;;;;;;19.10;13.50;;;;;;;7.19;92.58;101696.70;109208;1253;71651;-70
2023/04/17 02:28:38;;;;;;;19.50;13.40;;;;;;;7.19;92.07;101696.05;109219;1253;60184;-70
2023/04/17 02:31:07;;;;;;;15.40;13.30;;;;;;;7.18;92.14;101694.57;109394;1253;58528;-70
2023/04/17 02:33:35;;;;;;;18.60;13.20;;;;;;;7.17;92.21;101693.54;108933;1253;389836;-70
2023/04/17 02:36:03;;;;;;;16.60;12.80;;;;;;;7.17;92.04;101690.23;109319;1253;70252;-71
2023/04/17 02:38:30;;;;;;;17.20;13.60;;;;;;;7.15;91.91;101691.58;109393;1253;71743;-70
2023/04/17 02:40:57;;;;;;;16.60;12.80;;;;;;;7.14;92.17;101692.58;109368;1253;59637;-70
2023/04/17 02:43:24;;;;;;;19.30;13.00;;;;;;;7.13;91.79;101697.23;109447;1253;60174;-70
2023/04/17 02:45:51;;;;;;;17.00;13.10;;;;;;;7.13;91.76;101694.04;109323;1252;72628;-70
2023/04/17 02:48:17;;;;;;;18.60;12.90;;;;;;;7.12;91.70;101693.84;109267;1253;70992;-70
2023/04/17 02:50:44;;;;;;;15.30;12.40;;;;;;;7.09;92.06;101691.62;109258;1253;58244;-70
2023/04/17 02:53:11;;;;;;;20.10;13.20;;;;;;;7.06;91.82;101693.41;109405;1253;59658;-70
2023/04/17 02:55:37;;;;;;;18.00;13.30;;;;;;;7.03;92.18;101694.74;109314;1253;59117;-70
2023/04/17 02:58:04;;;;;;;16.80;12.60;;;;;;;7.02;92.07;101695.88;109466;1253;72392;-70
2023/04/17 03:00:31;;;;;;;17.50;13.80;;;;;;;7.01;92.34;101697.01;109451;1253;70387;-70
2023/04/17 03:02:58;;;;;;;17.90;13.30;;;;;;;7.01;92.30;101697.38;109259;1253;71546;-70
2023/04/17 03:05:28;;;;;;;18.50;12.60;;;;;;;7.00;92.46;101698.49;109379;1253;59635;-70
2023/04/17 03:07:57;;;;;;;18.80;13.80;;;;;;;7.00;92.36;101697.05;109171;1252;58793;-69
2023/04/17 03:10:24;;;;;;;18.00;13.20;;;;;;;7.03;92.50;101696.69;109282;1253;73752;-70
2023/04/17 03:12:50;;;;;;;16.70;13.00;;;;;;;7.02;92.34;101697.27;109285;1253;71176;-70
2023/04/17 03:15:17;;;;;;;20.10;13.60;;;;;;;6.99;92.29;101701.72;109434;1252;71146;-70
2023/04/17 03:17:44;;;;;;;21.20;13.80;;;;;;;6.99;92.29;101702.09;109284;1253;59975;-70
2023/04/17 03:20:11;;;;;;;17.70;13.00;;;;;;;6.99;92.19;101704.02;109476;1253;59075;-69
2023/04/17 03:22:37;;;;;;;17.50;12.50;;;;;;;6.99;92.20;101706.18;109223;1253;73155;-69
2023/04/17 03:25:05;;;;;;;19.30;13.30;;;;;;;6.97;92.18;101707.39;109375;1253;58133;-70
2023/04/17 03:27:31;;;;;;;17.50;13.10;;;;;;;6.94;92.28;101713.72;109320;1253;71498;-70
2023/04/17 03:29:58;;;;;;;20.90;13.30;;;;;;;6.93;92.41;101714.88;109370;1252;61051;-70
2023/04/17 03:32:24;;;;;;;18.80;13.40;;;;;;;6.91;92.44;101718.22;109147;1254;60016;-70
2023/04/17 03:34:51;;;;;;;16.10;12.60;;;;;;;6.91;92.36;101720.69;109431;1253;58211;-70
2023/04/17 03:37:17;;;;;;;19.30;12.70;;;;;;;6.91;92.22;101724.53;109404;1253;70286;-70
2023/04/17 03:39:44;;;;;;;15.70;12.80;;;;;;;6.91;92.14;101724.58;109431;1253;71806;-70
2023/04/17 03:42:13;;;;;;;18.90;12.80;;;;;;;6.90;92.47;101726.59;109286;1253;60911;-70
2023/04/17 03:44:40;;;;;;;16.50;12.70;;;;;;;6.89;92.31;101724.54;109227;1252;59445;-70
2023/04/17 03:47:06;;;;;;;18.20;12.80;;;;;;;6.88;92.22;101725.45;109406;1253;73882;-70
2023/04/17 03:49:33;;;;;;;16.40;12.20;;;;;;;6.87;92.13;101729.95;109315;1253;70052;-70
2023/04/17 03:52:02;;;;;;;17.80;12.50;;;;;;;6.85;92.20;101728.56;109334;1254;72956;-70
2023/04/17 03:54:34;;;;;;;17.50;12.10;;;;;;;6.83;92.15;101726.79;109424;1252;59163;-70
2023/04/17 03:57:02;;;;;;;18.70;13.20;;;;;;;6.82;92.37;101733.34;109263;1253;59124;-70
2023/04/17 03:59:30;;;;;;;16.00;12.40;;;;;;;6.81;92.28;101733.29;109117;1253;72722;-70
2023/04/17 04:01:57;;;;;;;20.30;12.70;;;;;;;6.80;92.22;101731.57;109193;1252;70914;-70
2023/04/17 04:04:24;;;;;;;18.30;12.90;;;;;;;6.81;92.47;101728.91;109435;1252;71466;-70
2023/04/17 04:06:53;;;;;;;23.40;13.90;;;;;;;6.79;92.32;101737.30;109302;1253;59651;-70
2023/04/17 04:09:20;;;;;;;16.80;12.60;;;;;;;6.78;92.19;101736.52;109429;1252;59464;-70
2023/04/17 04:11:47;;;;;;;17.20;12.80;;;;;;;6.75;92.42;101736.76;109369;1253;72682;-70
2023/04/17 04:14:14;;;;;;;16.70;12.80;;;;;;;6.72;92.24;101739.06;109435;1253;69774;-70
2023/04/17 04:16:41;;;;;;;19.20;13.30;;;;;;;6.71;92.39;101742.15;109185;1254;72700;-70
2023/04/17 04:19:07;;;;;;;17.40;12.20;;;;;;;6.71;92.30;101741.13;109308;1253;61699;-70
2023/04/17 04:21:34;;;;;;;16.30;12.10;;;;;;;6.69;92.20;101743.70;109187;1252;59149;-70
2023/04/17 04:24:02;;;;;;;18.70;12.50;;;;;;;6.68;92.10;101747.20;109202;1254;72601;-70
2023/04/17 04:26:28;;;;;;;18.60;12.90;;;;;;;6.67;92.11;101747.80;109129;1254;69705;-70
2023/04/17 04:28:55;;;;;;;18.60;13.50;;;;;;;6.67;92.56;101748.78;109272;1252;72691;-70
2023/04/17 04:31:24;;;;;;;20.00;12.40;;;;;;;6.67;92.47;101749.71;109237;1254;59636;-70
2023/04/17 04:33:53;;;;;;;23.50;13.40;;;;;;;6.65;92.42;101747.74;109406;1253;60396;-70
2023/04/17 04:36:21;;;;;;;19.70;12.80;;;;;;;6.68;92.61;101749.13;109322;1253;73876;-70
2023/04/17 04:38:49;;;;;;;18.40;12.50;;;;;;;6.71;92.83;101752.16;109316;1253;70498;-71
2023/04/17 04:41:16;;;;;;;17.00;12.70;;;;;;;6.76;92.85;101753.40;109199;1252;71288;-71
2023/04/17 04:43:43;;;;;;;16.70;13.00;;;;;;;6.81;92.50;101756.84;109383;1252;60875;-70
2023/04/17 04:46:10;;;;;;;18.70;12.50;;;;;;;6.83;92.06;101754.93;109321;1252;59273;-70
2023/04/17 04:48:37;;;;;;;16.10;12.10;;;;;;;6.85;91.80;101756.17;109385;1252;75037;-70
2023/04/17 04:51:07;;;;;;;17.00;12.60;;;;;;;6.88;91.93;101759.25;109409;1253;71027;-70
2023/04/17 04:53:34;;;;;;;22.90;13.20;;;;;;;6.90;91.74;101762.24;109421;1253;72784;-70
2023/04/17 04:56:01;;;;;;;15.80;12.80;;;;;;;6.91;91.69;101759.55;109193;1252;62114;-70
2023/04/17 04:58:30;;;;;;;18.10;12.50;;;;;;;6.93;91.47;101762.68;109397;1253;58970;-70
2023/04/17 05:00:57;;;;;;;17.50;12.80;;;;;;;6.94;91.30;101763.52;109332;1253;72251;-70
2023/04/17 05:03:25;;;;;;;17.80;12.70;;;;;;;6.94;91.41;101766.80;109201;1253;71867;-70
2023/04/17 05:05:51;;;;;;;17.10;12.50;;;;;;;6.97;91.16;101770.35;109133;1254;72700;-69
2023/04/17 05:08:19;;;;;;;19.20;12.40;;;;;;;6.98;91.48;101771.98;109405;1253;58580;-69
2023/04/17 05:10:45;;;;;;;16.40;11.70;;;;;;;6.99;91.29;101777.04;109205;1254;59735;-69
2023/04/17 05:13:12;;;;;;;16.90;12.40;;;;;;;6.98;91.15;101778.20;109248;1254;72906;-70
2023/04/17 05:15:40;;;;;;;17.50;12.30;;;;;;;6.96;90.96;101785.02;109280;1253;71208;-72
2023/04/17 05:18:07;;;;;;;17.70;12.40;;;;;;;6.98;91.20;101786.05;109308;1254;72408;-70
2023/04/17 05:20:35;;;;;;;16.80;12.50;;;;;;;7.01;91.15;101788.61;109354;1253;61441;-70
2023/04/17 05:23:02;;;;;;;17.40;11.80;;;;;;;7.05;91.05;101789.39;109407;1253;60322;-71
2023/04/17 05:25:28;;;;;;;18.20;12.50;;;;;;;7.07;90.88;101789.22;109305;1253;72752;-71
2023/04/17 05:27:55;;;;;;;19.00;12.30;;;;;;;7.09;90.93;101792.58;109430;1253;70998;-71
2023/04/17 05:30:22;;;;;;;16.90;12.00;;;;;;;7.14;90.97;101796.38;109325;1252;71238;-71
2023/04/17 05:32:49;;;;;;;14.60;11.10;;;;;;;7.20;90.87;101798.14;109383;1253;60964;-71
2023/04/17 05:35:16;;;;;;;17.90;12.10;;;;;;;7.23;90.37;101797.70;109354;1253;59032;-71
2023/04/17 05:37:42;;;;;;;18.10;11.70;;;;;;;7.27;90.39;101802.84;109285;1254;72495;-71
2023/04/17 05:40:09;;;;;;;17.20;11.70;;;;;;;7.29;90.35;101801.26;109456;1253;58190;-70
2023/04/17 05:42:36;;;;;;;15.00;12.00;;;;;;;7.31;89.76;101807.30;109362;1253;72796;-70
2023/04/17 05:45:03;;;;;;;18.60;12.40;;;;;;;7.33;89.91;101804.65;109490;1252;62891;-70
2023/04/17 05:47:30;;;;;;;17.70;11.70;;;;;;;7.39;89.83;101809.50;109442;1253;59182;-70
2023/04/17 05:49:58;;;;;;;16.70;12.20;;;;;;;7.42;89.44;101810.48;109335;1253;74320;-70
2023/04/17 05:52:25;;;;;;;16.60;12.10;;;;;;;7.50;89.94;101811.51;109377;1253;72193;-70
2023/04/17 05:54:52;;;;;;;15.60;12.00;;;;;;;7.61;89.92;101816.91;109094;1253;73950;-71
2023/04/17 05:57:19;;;;;;;18.50;12.20;;;;;;;7.67;89.24;101816.86;109327;1253;59785;-71
2023/04/17 05:59:46;;;;;;;18.20;12.20;;;;;;;7.72;88.78;101819.05;109378;1253;58757;-71
2023/04/17 06:02:13;;;;;;;17.90;11.40;;;;;;;7.78;88.54;101820.48;109386;1253;73993;-70
2023/04/17 06:04:40;;;;;;;15.20;11.30;;;;;;;7.83;88.66;101818.10;109313;1252;70800;-70
2023/04/17 06:07:08;;;;;;;16.10;11.90;;;;;;;7.90;88.17;101818.78;109126;1253;71365;-71
2023/04/17 06:09:35;;;;;;;14.50;11.60;;;;;;;7.99;88.16;101821.18;109213;1253;59972;-71
2023/04/17 06:12:05;;;;;;;17.60;11.30;;;;;;;8.05;87.51;101820.67;109102;1253;60314;-71
2023/04/17 06:14:32;;;;;;;14.20;11.50;;;;;;;8.12;87.50;101824.84;109049;1252;73875;-71
2023/04/17 06:16:59;;;;;;;17.10;11.00;;;;;;;8.24;87.65;101824.14;109227;1254;69090;-71
2023/04/17 06:19:26;;;;;;;16.20;11.00;;;;;;;8.34;87.04;101831.55;109227;1253;72388;-71
2023/04/17 06:21:53;;;;;;;15.20;11.10;;;;;;;8.41;86.66;101831.50;109376;1254;61103;-71
2023/04/17 06:24:20;;;;;;;14.00;10.60;;;;;;;8.49;86.30;101833.69;109269;1253;58575;-70
2023/04/17 06:26:47;;;;;;;16.90;11.30;;;;;;;8.55;85.63;101834.36;109125;1252;77129;-71
2023/04/17 06:29:14;;;;;;;16.10;10.90;;;;;;;8.62;85.34;101836.79;109268;1253;68908;-71
2023/04/17 06:31:42;;;;;;;12.90;10.20;;;;;;;8.67;84.66;101839.70;109259;1254;73181;-71
2023/04/17 06:34:08;;;;;;;16.10;11.40;;;;;;;8.74;84.71;101841.86;109336;1253;59377;-71
2023/04/17 06:36:35;;;;;;;14.60;11.00;;;;;;;8.86;84.94;101842.20;109172;1253;59795;-71
2023/04/17 06:39:02;;;;;;;16.70;11.10;;;;;;;8.99;84.67;101845.11;109350;1253;72406;-71
2023/04/17 06:41:29;;;;;;;14.40;10.60;;;;;;;9.13;84.52;101846.08;109259;1254;71130;-71
2023/04/17 06:43:55;;;;;;;15.50;9.40;;;;;;;9.25;83.26;101843.69;109404;1253;72389;-71
2023/04/17 06:46:22;;;;;;;14.60;10.30;;;;;;;9.20;80.20;101848.92;109327;1253;61191;-71
2023/04/17 06:48:51;;;;;;;14.80;10.50;;;;;;;9.16;80.24;101849.30;109364;1253;61056;-71
2023/04/17 06:51:19;;;;;;;14.90;10.40;;;;;;;9.17;79.75;101849.92;109411;1253;72965;-71
2023/04/17 06:53:47;;;;;;;13.90;10.30;;;;;;;9.22;80.14;101852.42;109275;1253;71239;-71
2023/04/17 06:56:13;;;;;;;14.50;10.10;;;;;;;9.29;79.27;101850.41;109188;1253;72805;-71
2023/04/17 06:58:43;;;;;;;13.90;9.90;;;;;;;9.39;79.57;101851.79;109343;1253;61371;-71
2023/04/17 07:01:10;;;;;;;14.20;9.50;;;;;;;9.44;77.54;101851.55;109308;1253;60341;-71
2023/04/17 07:03:41;;;;;;;14.60;10.00;;;;;;;9.53;77.79;101851.08;109361;1252;72694;-71
2023/04/17 07:06:08;;;;;;;15.00;10.00;;;;;;;9.66;77.47;101850.27;109306;1253;70065;-71
2023/04/17 07:08:35;;;;;;;15.60;10.50;;;;;;;9.87;78.23;101855.80;109164;1254;71542;-71
2023/04/17 07:11:02;;;;;;;13.40;9.80;;;;;;;10.10;77.59;101853.80;109248;1252;60437;-72
2023/04/17 07:13:31;;;;;;;13.70;10.20;;;;;;;10.29;76.80;101853.94;109276;1252;58776;-71
2023/04/17 07:16:00;;;;;;;13.40;9.60;;;;;;;10.59;76.57;101857.55;109163;1254;73658;-71
2023/04/17 07:18:28;;;;;;;14.90;9.60;;;;;;;10.76;73.17;101861.55;109398;1253;69660;-71
2023/04/17 07:20:55;;;;;;;12.20;9.10;;;;;;;10.88;72.75;101863.41;109096;1253;73681;-71
2023/04/17 07:23:22;;;;;;;13.40;9.70;;;;;;;11.04;73.27;101863.23;109266;1252;61830;-71
2023/04/17 07:25:49;;;;;;;17.00;11.80;;;;;;;11.26;73.05;101863.46;109287;1253;60515;-71
2023/04/17 07:28:16;;;;;;;12.00;9.30;;;;;;;11.49;72.40;101866.33;109444;1254;73798;-71
2023/04/17 07:30:43;;;;;;;12.60;8.80;;;;;;;11.72;71.60;101865.13;109200;1253;71845;-71
2023/04/17 07:33:10;;;;;;;11.00;7.80;;;;;;;11.76;67.47;101863.73;109324;1253;71429;-71
2023/04/17 07:35:37;;;;;;;11.80;8.70;;;;;;;11.64;64.72;101866.80;109359;1252;60976;-71
2023/04/17 07:38:04;;;;;;;13.50;8.60;;;;;;;11.60;65.68;101868.45;109298;1252;61538;-71
2023/04/17 07:40:32;;;;;;;12.40;9.20;;;;;;;11.60;66.44;101871.60;109314;1253;73130;-71
2023/04/17 07:42:59;;;;;;;12.70;8.50;;;;;;;11.63;67.00;101872.04;109243;1253;70426;-71
2023/04/17 07:45:27;;;;;;;13.10;9.20;;;;;;;11.68;66.55;101871.15;109419;1253;71277;-71
2023/04/17 07:47:53;;;;;;;12.80;8.30;;;;;;;11.75;66.75;101866.34;109231;1253;59566;-72
2023/04/17 07:50:20;;;;;;;12.90;8.20;;;;;;;11.86;66.70;101865.13;109387;1253;59476;-72
2023/04/17 07:52:47;;;;;;;10.30;8.00;;;;;;;11.80;64.42;101866.59;109250;1254;73967;-72
2023/04/17 07:55:15;;;;;;;13.20;9.00;;;;;;;11.74;65.27;101869.11;109281;1253;70504;-72
2023/04/17 07:57:42;;;;;;;13.00;8.80;;;;;;;11.75;65.55;101866.23;109295;1252;72825;-72
2023/04/17 08:00:12;;;;;;;11.00;8.30;;;;;;;11.87;66.44;101867.32;109417;1253;63351;-72
2023/04/17 08:02:40;;;;;;;13.20;8.90;;;;;;;12.05;66.35;101870.71;109236;1253;61566;-72
2023/04/17 08:05:08;;;;;;;12.40;8.40;;;;;;;12.19;64.83;101871.00;109117;1254;75418;-72
2023/04/17 08:07:35;;;;;;;12.40;8.40;;;;;;;12.28;64.67;101870.31;109300;1254;69892;-72
2023/04/17 08:10:03;;;;;;;14.10;9.00;;;;;;;12.45;65.38;101871.14;109320;1253;72667;-72
2023/04/17 08:12:29;;;;;;;11.90;8.30;;;;;;;12.65;65.28;101872.98;109427;1254;62123;-72
2023/04/17 08:14:56;;;;;;;11.40;7.90;;;;;;;12.84;64.49;101875.91;109365;1254;59642;-72
2023/04/17 08:17:24;;;;;;;11.20;8.30;;;;;;;13.03;64.01;101879.93;109273;1253;75699;-72
2023/04/17 08:19:56;;;;;;;12.20;8.80;;;;;;;13.18;61.87;101878.88;109451;1253;69928;-72
2023/04/17 08:22:24;;;;;;;11.00;8.20;;;;;;;13.25;61.25;101877.92;109237;1254;72539;-73
2023/04/17 08:24:56;;;;;;;11.40;8.40;;;;;;;13.30;60.03;101877.10;109238;1253;61388;-73
2023/04/17 08:27:24;;;;;;;8.70;7.50;;;;;;;13.26;58.22;101878.38;109278;1258;60316;-74
2023/04/17 08:29:52;;;;;;;10.30;7.90;;;;;;;13.19;59.10;101884.64;109436;1253;73046;-73
2023/04/17 08:32:20;;;;;;;11.10;7.50;;;;;;;13.12;59.06;101888.23;109243;1252;69900;-73
2023/04/17 08:34:47;;;;;;;13.30;8.70;;;;;;;13.18;60.32;101891.64;109059;1252;72464;-73
2023/04/17 08:37:13;;;;;;;10.70;7.90;;;;;;;13.22;59.75;101887.15;109400;1253;60695;-73
2023/04/17 08:39:40;;;;;;;12.90;8.80;;;;;;;13.16;58.25;101893.83;109390;1253;59225;-73
2023/04/17 08:42:09;;;;;;;12.20;8.30;;;;;;;13.14;58.71;101889.61;109272;1253;76089;-73
2023/04/17 08:44:43;;;;;;;12.70;8.30;;;;;;;13.21;59.90;101888.94;109279;1253;71021;-73
2023/04/17 08:47:11;;;;;;;11.40;8.00;;;;;;;13.29;59.10;101889.81;109249;1253;72708;-71
2023/04/17 08:49:42;;;;;;;11.90;8.70;;;;;;;13.36;59.24;101891.04;109174;1253;62500;-72
2023/04/17 08:52:09;;;;;;;12.60;8.60;;;;;;;13.33;57.36;101890.05;109446;1253;60445;-72
2023/04/17 08:54:37;;;;;;;9.90;8.30;;;;;;;13.31;57.74;101892.27;109306;1254;73180;-72
2023/04/17 08:57:04;;;;;;;11.90;8.10;;;;;;;13.19;56.42;101891.03;109432;1253;70952;-72
2023/04/17 08:59:32;;;;;;;9.80;8.00;;;;;;;13.27;57.98;101891.20;109170;1253;72738;-72
2023/04/17 09:02:08;;;;;;;13.50;8.60;;;;;;;13.38;56.97;101892.14;109146;1253;61196;-72
2023/04/17 09:04:38;;;;;;;10.90;8.00;;;;;;;13.51;57.53;101889.20;109289;1253;59417;-72
2023/04/17 09:07:06;;;;;;;10.80;8.30;;;;;;;13.70;56.73;101894.23;109318;1253;74752;-72
2023/04/17 09:09:50;;;;;;;11.90;8.30;;;;;;;13.91;55.86;101895.94;109381;1252;69701;-72
2023/04/17 09:12:17;;;;;;;10.30;8.00;;;;;;;14.09;56.19;101893.92;109411;1252;71445;-72
2023/04/17 09:14:44;;;;;;;11.20;8.40;;;;;;;14.30;56.12;101896.20;109316;1253;59756;-72
2023/04/17 09:17:11;;;;;;;14.00;8.00;;;;;;;14.41;54.08;101897.61;109259;1253;59475;-73
2023/04/17 09:20:02;;;;;;;10.00;8.00;;;;;;;14.30;52.88;101896.02;109211;1254;75121;-72
2023/04/17 09:22:29;;;;;;;11.70;7.60;;;;;;;14.33;53.02;101892.88;109394;1254;71150;-72
2023/04/17 09:24:56;;;;;;;11.00;7.40;;;;;;;14.52;54.24;101895.73;109403;1254;71232;-73
2023/04/17 09:27:25;;;;;;;10.80;7.10;;;;;;;14.71;52.29;101891.80;109283;1253;58897;-73
2023/04/17 09:29:57;;;;;;;10.60;7.10;;;;;;;14.74;50.38;101891.55;109281;1254;60019;-73
2023/04/17 09:32:25;;;;;;;10.40;6.80;;;;;;;14.68;48.79;101891.67;109020;1253;74602;-73
2023/04/17 09:34:52;;;;;;;8.50;7.10;;;;;;;14.61;49.12;101894.30;109265;1254;70276;-73
2023/04/17 09:37:20;;;;;;;9.80;7.10;;;;;;;14.50;49.09;101897.27;109464;1254;71508;-73
2023/04/17 09:40:00;;;;;;;9.30;7.40;;;;;;;14.62;51.24;101896.27;109213;1254;59664;-72
2023/04/17 09:42:27;;;;;;;9.40;7.00;;;;;;;14.89;50.67;101896.46;109268;1253;60047;-73
2023/04/17 09:44:54;;;;;;;9.70;6.70;;;;;;;14.95;47.07;101901.72;109400;1253;73437;-73
2023/04/17 09:47:21;;;;;;;9.70;6.40;;;;;;;14.99;47.68;101900.86;109220;1254;70901;-73
2023/04/17 09:49:51;;;;;;;7.50;5.90;;;;;;;15.21;47.57;101904.02;109410;1253;71096;-73
2023/04/17 09:52:22;;;;;;;9.10;6.10;;;;;;;15.26;45.34;101899.41;109165;1253;60324;-72
2023/04/17 09:54:55;;;;;;;9.80;6.50;;;;;;;15.34;46.98;101899.33;109159;1254;59993;-73
2023/04/17 09:57:22;;;;;;;9.60;6.50;;;;;;;15.45;47.00;101900.90;109317;1254;72198;-72
2023/04/17 09:59:50;;;;;;;9.30;6.50;;;;;;;15.58;47.43;101901.45;109376;1253;72024;-73
2023/04/17 10:02:19;;;;;;;9.60;6.50;;;;;;;15.68;47.67;101896.13;109359;1253;72381;-73
2023/04/17 10:04:46;;;;;;;10.20;6.10;;;;;;;15.76;47.35;101895.45;109325;1254;59067;-73
2023/04/17 10:07:13;;;;;;;8.20;6.10;;;;;;;15.79;47.91;101895.52;109366;1253;60417;-73
2023/04/17 10:09:41;;;;;;;10.60;6.10;;;;;;;15.87;47.49;101900.73;109283;1254;72709;-72
2023/04/17 10:12:16;;;;;;;8.80;6.00;;;;;;;15.79;44.76;101893.45;109157;1253;68658;-73
2023/04/17 10:14:47;;;;;;;7.00;4.40;;;;;;;15.57;42.20;101892.66;109391;1252;72691;-72
2023/04/17 10:17:27;;;;;;;7.50;5.40;;;;;;;15.27;41.59;101894.59;109407;1253;58764;-72
2023/04/17 10:19:54;;;;;;;8.70;5.50;;;;;;;15.35;42.64;101895.47;109445;1253;60665;-73
2023/04/17 10:22:22;;;;;;;7.90;5.60;;;;;;;15.55;44.30;101893.88;109425;1252;73756;-73
2023/04/17 10:24:51;;;;;;;8.40;5.60;;;;;;;15.80;44.67;101890.45;109412;1253;71303;-73
2023/04/17 10:27:27;;;;;;;7.60;5.30;;;;;;;16.06;44.68;101883.14;109007;1254;71439;-73
2023/04/17 10:29:56;;;;;;;9.20;5.80;;;;;;;16.31;44.61;101882.11;109395;1253;59317;-73
2023/04/17 10:32:24;;;;;;;9.60;5.70;;;;;;;16.53;43.93;101882.52;109311;1254;60051;-73
2023/04/17 10:34:53;;;;;;;8.20;5.70;;;;;;;16.73;43.96;101882.65;109417;1254;75717;-73
2023/04/17 10:37:21;;;;;;;7.20;5.40;;;;;;;16.89;43.38;101882.48;109087;1254;71454;-73
2023/04/17 10:39:50;;;;;;;8.60;5.10;;;;;;;16.97;42.54;101879.67;109398;1253;71441;-72
2023/04/17 10:42:21;;;;;;;10.00;5.60;;;;;;;17.09;42.62;101879.68;109182;1254;58389;-73
2023/04/17 10:44:49;;;;;;;7.30;5.40;;;;;;;17.24;43.00;101881.99;109252;1254;60035;-73
2023/04/17 10:47:20;;;;;;;11.30;5.50;;;;;;;17.40;42.56;101880.43;109153;1254;74781;-72
2023/04/17 10:49:53;;;;;;;9.00;5.80;;;;;;;17.56;41.68;101877.98;109239;1254;70024;-73
2023/04/17 10:52:46;;;;;;;9.10;5.90;;;;;;;17.69;41.48;101872.77;109011;1253;72933;-73
2023/04/17 10:55:15;;;;;;;8.80;5.40;;;;;;;17.89;41.45;101869.36;109350;1253;60239;-73
2023/04/17 10:57:53;;;;;;;7.50;5.30;;;;;;;18.19;41.65;101869.80;109161;1257;59006;-72
2023/04/17 11:00:27;;;;;;;8.80;5.60;;;;;;;18.47;40.13;101868.27;109339;1254;74524;-73
2023/04/17 11:02:53;;;;;;;6.60;5.20;;;;;;;18.64;40.60;101859.26;109309;1254;71235;-73
2023/04/17 11:05:22;;;;;;;7.80;4.70;;;;;;;18.66;38.91;101858.80;109344;1253;72430;-73
2023/04/17 11:07:50;;;;;;;7.70;5.00;;;;;;;18.70;39.67;101858.78;109360;1253;59015;-73
2023/04/17 11:10:19;;;;;;;8.00;4.90;;;;;;;18.86;39.57;101864.13;109101;1254;61799;-73
2023/04/17 11:12:52;;;;;;;9.10;5.10;;;;;;;19.10;39.68;101863.99;109358;1254;74425;-73